sensor_id;sensor_type;location;lat;lon;timestamp;pressure;altitude;pressure_sealevel;temperature;humidity
14117;BME280;7137;51.436;6.544;2022-09-09T00:01:27;100432.56;;;16.42;95.38
14117;BME280;7137;51.436;6.544;2022-09-09T00:04:32;100438.69;;;16.42;94.06
14117;BME280;7137;51.436;6.544;2022-09-09T00:07:41;100427.38;;;16.40;93.35
14117;BME280;7137;51.436;6.544;2022-09-09T00:10:48;100425.56;;;16.26;94.54
14117;BME280;7137;51.436;6.544;2022-09-09T00:13:57;100428.50;;;16.22;94.91
14117;BME280;7137;51.436;6.544;2022-09-09T00:17:02;100433.56;;;16.25;94.29
14117;BME280;7137;51.436;6.544;2022-09-09T00:20:12;100440.53;;;16.26;95.23
14117;BME280;7137;51.436;6.544;2022-09-09T00:23:19;100444.13;;;16.39;93.76
14117;BME280;7137;51.436;6.544;2022-09-09T00:26:32;100433.09;;;16.32;96.34
14117;BME280;7137;51.436;6.544;2022-09-09T00:29:42;100439.25;;;16.33;95.52
14117;BME280;7137;51.436;6.544;2022-09-09T00:32:45;100434.34;;;16.41;94.76
14117;BME280;7137;51.436;6.544;2022-09-09T00:35:49;100428.59;;;16.35;97.41
14117;BME280;7137;51.436;6.544;2022-09-09T00:38:53;100425.69;;;16.39;97.42
14117;BME280;7137;51.436;6.544;2022-09-09T00:42:08;100435.19;;;16.42;94.62
14117;BME280;7137;51.436;6.544;2022-09-09T00:45:30;100436.53;;;16.35;96.14
14117;BME280;7137;51.436;6.544;2022-09-09T00:48:45;100428.88;;;16.30;95.68
14117;BME280;7137;51.436;6.544;2022-09-09T00:51:58;100435.66;;;16.20;94.98
14117;BME280;7137;51.436;6.544;2022-09-09T00:55:07;100434.28;;;16.13;95.78
14117;BME280;7137;51.436;6.544;2022-09-09T00:58:14;100435.50;;;16.07;96.23
14117;BME280;7137;51.436;6.544;2022-09-09T01:01:16;100430.16;;;16.09;96.62
14117;BME280;7137;51.436;6.544;2022-09-09T01:04:24;100430.50;;;16.02;97.22
14117;BME280;7137;51.436;6.544;2022-09-09T01:07:29;100424.28;;;16.03;95.61
14117;BME280;7137;51.436;6.544;2022-09-09T01:10:48;100432.00;;;15.92;96.41
14117;BME280;7137;51.436;6.544;2022-09-09T01:13:58;100430.44;;;15.88;97.22
14117;BME280;7137;51.436;6.544;2022-09-09T01:17:09;100422.53;;;15.88;96.35
14117;BME280;7137;51.436;6.544;2022-09-09T01:20:18;100423.41;;;15.89;97.95
14117;BME280;7137;51.436;6.544;2022-09-09T01:23:32;100419.25;;;15.85;98.91
14117;BME280;7137;51.436;6.544;2022-09-09T01:26:37;100407.97;;;15.83;97.81
14117;BME280;7137;51.436;6.544;2022-09-09T01:29:40;100420.38;;;15.81;99.96
14117;BME280;7137;51.436;6.544;2022-09-09T01:32:44;100417.56;;;15.84;97.45
14117;BME280;7137;51.436;6.544;2022-09-09T01:35:49;100417.41;;;15.71;98.65
14117;BME280;7137;51.436;6.544;2022-09-09T01:42:50;100422.53;;;15.88;98.80
14117;BME280;7137;51.436;6.544;2022-09-09T01:45:53;100423.00;;;15.81;100.00
14117;BME280;7137;51.436;6.544;2022-09-09T01:48:57;100421.88;;;15.85;99.16
14117;BME280;7137;51.436;6.544;2022-09-09T01:52:00;100415.00;;;15.82;98.60
14117;BME280;7137;51.436;6.544;2022-09-09T01:55:02;100417.13;;;15.76;99.98
14117;BME280;7137;51.436;6.544;2022-09-09T01:58:16;100409.31;;;15.74;98.45
14117;BME280;7137;51.436;6.544;2022-09-09T02:01:30;100409.50;;;15.71;98.25
14117;BME280;7137;51.436;6.544;2022-09-09T02:04:40;100408.84;;;15.67;99.73
14117;BME280;7137;51.436;6.544;2022-09-09T02:07:46;100415.34;;;15.76;100.00
14117;BME280;7137;51.436;6.544;2022-09-09T02:10:54;100411.88;;;15.76;99.67
14117;BME280;7137;51.436;6.544;2022-09-09T02:14:00;100417.84;;;15.79;100.00
14117;BME280;7137;51.436;6.544;2022-09-09T02:17:07;100412.38;;;15.82;99.77
14117;BME280;7137;51.436;6.544;2022-09-09T02:20:12;100413.56;;;15.92;98.56
14117;BME280;7137;51.436;6.544;2022-09-09T02:23:15;100404.09;;;15.88;99.84
14117;BME280;7137;51.436;6.544;2022-09-09T02:26:19;100407.97;;;15.83;98.82
14117;BME280;7137;51.436;6.544;2022-09-09T02:29:27;100403.91;;;15.77;100.00
14117;BME280;7137;51.436;6.544;2022-09-09T02:32:32;100408.25;;;15.78;100.00
14117;BME280;7137;51.436;6.544;2022-09-09T02:35:37;100402.50;;;15.86;98.71
14117;BME280;7137;51.436;6.544;2022-09-09T02:38:44;100404.66;;;15.79;99.49
14117;BME280;7137;51.436;6.544;2022-09-09T02:41:50;100396.06;;;15.76;100.00
14117;BME280;7137;51.436;6.544;2022-09-09T02:44:55;100397.44;;;15.83;100.00
14117;BME280;7137;51.436;6.544;2022-09-09T02:48:00;100396.66;;;15.81;100.00
14117;BME280;7137;51.436;6.544;2022-09-09T02:51:08;100395.91;;;15.79;99.72
14117;BME280;7137;51.436;6.544;2022-09-09T02:54:18;100400.34;;;15.78;100.00
14117;BME280;7137;51.436;6.544;2022-09-09T02:57:24;100401.09;;;15.80;98.81
14117;BME280;7137;51.436;6.544;2022-09-09T03:00:30;100399.22;;;15.82;100.00
14117;BME280;7137;51.436;6.544;2022-09-09T03:03:32;100396.38;;;15.85;98.73
14117;BME280;7137;51.436;6.544;2022-09-09T03:06:33;100381.53;;;15.84;98.73
14117;BME280;7137;51.436;6.544;2022-09-09T03:09:35;100392.56;;;15.91;99.62
14117;BME280;7137;51.436;6.544;2022-09-09T03:12:37;100394.47;;;16.17;97.79
14117;BME280;7137;51.436;6.544;2022-09-09T03:15:40;100390.06;;;16.18;97.37
14117;BME280;7137;51.436;6.544;2022-09-09T03:18:41;100394.66;;;16.14;98.22
14117;BME280;7137;51.436;6.544;2022-09-09T03:21:45;100384.63;;;16.21;99.29
14117;BME280;7137;51.436;6.544;2022-09-09T03:24:47;100390.91;;;16.18;98.60
14117;BME280;7137;51.436;6.544;2022-09-09T03:27:48;100388.47;;;16.15;99.83
14117;BME280;7137;51.436;6.544;2022-09-09T03:30:51;100388.38;;;16.17;97.69
14117;BME280;7137;51.436;6.544;2022-09-09T03:33:53;100391.38;;;16.11;99.96
14117;BME280;7137;51.436;6.544;2022-09-09T03:36:54;100386.84;;;16.13;99.46
14117;BME280;7137;51.436;6.544;2022-09-09T03:39:56;100384.03;;;16.16;98.68
14117;BME280;7137;51.436;6.544;2022-09-09T03:42:57;100383.00;;;16.18;99.49
14117;BME280;7137;51.436;6.544;2022-09-09T03:46:01;100380.09;;;16.23;99.19
14117;BME280;7137;51.436;6.544;2022-09-09T03:49:02;100377.25;;;16.12;98.46
14117;BME280;7137;51.436;6.544;2022-09-09T03:52:04;100381.78;;;16.10;98.81
14117;BME280;7137;51.436;6.544;2022-09-09T03:55:06;100389.91;;;16.21;98.22
14117;BME280;7137;51.436;6.544;2022-09-09T03:58:08;100390.84;;;16.34;98.71
14117;BME280;7137;51.436;6.544;2022-09-09T04:01:13;100379.16;;;16.24;99.04
14117;BME280;7137;51.436;6.544;2022-09-09T04:04:14;100385.59;;;16.34;98.44
14117;BME280;7137;51.436;6.544;2022-09-09T04:07:16;100390.28;;;16.43;97.07
14117;BME280;7137;51.436;6.544;2022-09-09T04:10:18;100391.63;;;16.50;96.40
14117;BME280;7137;51.436;6.544;2022-09-09T04:13:19;100392.06;;;16.43;98.09
14117;BME280;7137;51.436;6.544;2022-09-09T04:16:23;100398.38;;;16.40;98.29
14117;BME280;7137;51.436;6.544;2022-09-09T04:19:24;100397.25;;;16.44;97.36
14117;BME280;7137;51.436;6.544;2022-09-09T04:22:26;100396.13;;;16.48;98.71
14117;BME280;7137;51.436;6.544;2022-09-09T04:25:27;100398.00;;;16.46;96.70
14117;BME280;7137;51.436;6.544;2022-09-09T04:28:30;100390.38;;;16.56;96.59
14117;BME280;7137;51.436;6.544;2022-09-09T04:31:34;100396.13;;;16.48;98.90
14117;BME280;7137;51.436;6.544;2022-09-09T04:34:35;100389.06;;;16.49;97.73
14117;BME280;7137;51.436;6.544;2022-09-09T04:37:37;100394.81;;;16.55;98.10
14117;BME280;7137;51.436;6.544;2022-09-09T04:40:39;100399.97;;;16.57;97.82
14117;BME280;7137;51.436;6.544;2022-09-09T04:43:43;100394.81;;;16.55;97.93
14117;BME280;7137;51.436;6.544;2022-09-09T04:46:46;100393.84;;;16.56;97.33
14117;BME280;7137;51.436;6.544;2022-09-09T04:49:48;100389.44;;;16.57;95.94
14117;BME280;7137;51.436;6.544;2022-09-09T04:52:49;100392.56;;;16.63;95.27
14117;BME280;7137;51.436;6.544;2022-09-09T04:55:52;100394.06;;;16.53;96.10
14117;BME280;7137;51.436;6.544;2022-09-09T04:58:53;100391.03;;;16.59;96.08
14117;BME280;7137;51.436;6.544;2022-09-09T05:01:56;100386.13;;;16.53;96.34
14117;BME280;7137;51.436;6.544;2022-09-09T05:04:58;100386.13;;;16.53;95.64
14117;BME280;7137;51.436;6.544;2022-09-09T05:08:01;100389.72;;;16.52;96.75
14117;BME280;7137;51.436;6.544;2022-09-09T05:11:03;100388.31;;;16.61;96.22
14117;BME280;7137;51.436;6.544;2022-09-09T05:14:05;100385.84;;;16.44;98.00
14117;BME280;7137;51.436;6.544;2022-09-09T05:17:08;100382.75;;;16.37;98.64
14117;BME280;7137;51.436;6.544;2022-09-09T05:20:09;100382.16;;;16.46;97.87
14117;BME280;7137;51.436;6.544;2022-09-09T05:23:12;100382.75;;;16.51;96.54
14117;BME280;7137;51.436;6.544;2022-09-09T05:26:15;100374.66;;;16.40;96.21
14117;BME280;7137;51.436;6.544;2022-09-09T05:29:17;100376.25;;;16.43;97.11
14117;BME280;7137;51.436;6.544;2022-09-09T05:32:20;100380.38;;;16.47;97.98
14117;BME280;7137;51.436;6.544;2022-09-09T05:35:22;100379.38;;;16.63;95.50
14117;BME280;7137;51.436;6.544;2022-09-09T05:38:24;100387.56;;;16.73;95.52
14117;BME280;7137;51.436;6.544;2022-09-09T05:41:25;100373.81;;;16.68;96.15
14117;BME280;7137;51.436;6.544;2022-09-09T05:44:29;100383.31;;;16.85;94.58
14117;BME280;7137;51.436;6.544;2022-09-09T05:47:31;100377.69;;;16.77;96.64
14117;BME280;7137;51.436;6.544;2022-09-09T05:50:33;100381.25;;;16.90;94.95
14117;BME280;7137;51.436;6.544;2022-09-09T05:53:35;100380.97;;;16.95;94.03
14117;BME280;7137;51.436;6.544;2022-09-09T05:56:37;100385.59;;;16.91;93.84
14117;BME280;7137;51.436;6.544;2022-09-09T05:59:38;100387.38;;;16.90;94.50
14117;BME280;7137;51.436;6.544;2022-09-09T06:02:41;100389.06;;;17.06;93.50
14117;BME280;7137;51.436;6.544;2022-09-09T06:05:42;100388.66;;;17.12;94.21
14117;BME280;7137;51.436;6.544;2022-09-09T06:08:44;100400.59;;;17.32;93.03
14117;BME280;7137;51.436;6.544;2022-09-09T06:11:46;100394.91;;;17.38;91.71
14117;BME280;7137;51.436;6.544;2022-09-09T06:14:47;100390.63;;;17.49;91.97
14117;BME280;7137;51.436;6.544;2022-09-09T06:17:55;100395.72;;;17.92;91.24
14117;BME280;7137;51.436;6.544;2022-09-09T06:20:57;100402.22;;;18.39;88.25
14117;BME280;7137;51.436;6.544;2022-09-09T06:24:01;100406.34;;;18.43;86.39
14117;BME280;7137;51.436;6.544;2022-09-09T06:27:03;100407.06;;;18.58;85.52
14117;BME280;7137;51.436;6.544;2022-09-09T06:30:06;100407.41;;;18.53;85.12
14117;BME280;7137;51.436;6.544;2022-09-09T06:33:11;100410.59;;;18.33;84.32
14117;BME280;7137;51.436;6.544;2022-09-09T06:36:14;100408.03;;;18.31;84.56
14117;BME280;7137;51.436;6.544;2022-09-09T06:39:17;100407.19;;;18.18;86.09
14117;BME280;7137;51.436;6.544;2022-09-09T06:42:18;100402.63;;;18.07;86.82
14117;BME280;7137;51.436;6.544;2022-09-09T06:45:20;100408.13;;;18.43;85.16
14117;BME280;7137;51.436;6.544;2022-09-09T06:48:22;100416.19;;;19.28;84.22
14117;BME280;7137;51.436;6.544;2022-09-09T06:51:27;100407.91;;;19.81;78.95
14117;BME280;7137;51.436;6.544;2022-09-09T06:54:29;100409.22;;;20.10;77.13
14117;BME280;7137;51.436;6.544;2022-09-09T06:57:30;100419.41;;;20.39;75.27
14117;BME280;7137;51.436;6.544;2022-09-09T07:00:32;100415.63;;;22.17;69.59
14117;BME280;7137;51.436;6.544;2022-09-09T07:03:35;100415.06;;;24.23;59.63
14117;BME280;7137;51.436;6.544;2022-09-09T07:06:39;100417.69;;;25.97;54.93
14117;BME280;7137;51.436;6.544;2022-09-09T07:09:42;100417.78;;;26.83;49.91
14117;BME280;7137;51.436;6.544;2022-09-09T07:12:50;100432.88;;;27.77;47.90
14117;BME280;7137;51.436;6.544;2022-09-09T07:15:52;100425.09;;;28.63;46.33
14117;BME280;7137;51.436;6.544;2022-09-09T07:18:55;100431.63;;;29.78;43.10
14117;BME280;7137;51.436;6.544;2022-09-09T07:21:57;100439.38;;;29.50;42.19
14117;BME280;7137;51.436;6.544;2022-09-09T07:24:59;100435.69;;;27.67;46.88
14117;BME280;7137;51.436;6.544;2022-09-09T07:28:02;100423.97;;;26.06;49.02
14117;BME280;7137;51.436;6.544;2022-09-09T07:31:05;100430.78;;;24.82;53.76
14117;BME280;7137;51.436;6.544;2022-09-09T07:34:08;100418.19;;;26.62;49.38
14117;BME280;7137;51.436;6.544;2022-09-09T07:37:10;100418.22;;;28.61;43.81
14117;BME280;7137;51.436;6.544;2022-09-09T07:40:14;100415.22;;;27.83;44.91
14117;BME280;7137;51.436;6.544;2022-09-09T07:43:16;100428.59;;;26.22;49.81
14117;BME280;7137;51.436;6.544;2022-09-09T07:46:21;100427.44;;;25.81;51.48
14117;BME280;7137;51.436;6.544;2022-09-09T07:49:24;100421.47;;;25.41;50.90
14117;BME280;7137;51.436;6.544;2022-09-09T07:52:25;100418.59;;;26.84;48.18
14117;BME280;7137;51.436;6.544;2022-09-09T07:55:27;100429.03;;;25.28;50.38
14117;BME280;7137;51.436;6.544;2022-09-09T07:58:29;100434.69;;;23.54;55.70
14117;BME280;7137;51.436;6.544;2022-09-09T08:01:32;100423.91;;;23.06;56.89
14117;BME280;7137;51.436;6.544;2022-09-09T08:04:35;100426.59;;;23.65;56.43
14117;BME280;7137;51.436;6.544;2022-09-09T08:07:37;100419.41;;;23.56;56.65
14117;BME280;7137;51.436;6.544;2022-09-09T08:10:38;100419.09;;;26.27;50.12
14117;BME280;7137;51.436;6.544;2022-09-09T08:13:41;100424.25;;;26.21;47.33
14117;BME280;7137;51.436;6.544;2022-09-09T08:16:45;100418.63;;;26.58;47.00
14117;BME280;7137;51.436;6.544;2022-09-09T08:19:49;100422.56;;;27.56;44.85
14117;BME280;7137;51.436;6.544;2022-09-09T08:22:50;100422.63;;;28.21;42.48
14117;BME280;7137;51.436;6.544;2022-09-09T08:25:52;100424.78;;;28.50;42.17
14117;BME280;7137;51.436;6.544;2022-09-09T08:28:55;100434.50;;;29.15;40.58
14117;BME280;7137;51.436;6.544;2022-09-09T08:31:58;100423.81;;;27.94;43.68
14117;BME280;7137;51.436;6.544;2022-09-09T08:35:01;100423.88;;;25.98;48.20
14117;BME280;7137;51.436;6.544;2022-09-09T08:38:02;100433.00;;;25.24;50.22
14117;BME280;7137;51.436;6.544;2022-09-09T08:41:15;100433.19;;;24.39;52.28
14117;BME280;7137;51.436;6.544;2022-09-09T08:44:25;100435.94;;;23.50;54.38
14117;BME280;7137;51.436;6.544;2022-09-09T08:47:37;100425.91;;;23.83;54.09
14117;BME280;7137;51.436;6.544;2022-09-09T08:50:44;100425.34;;;23.20;55.52
14117;BME280;7137;51.436;6.544;2022-09-09T08:53:51;100425.72;;;22.75;56.80
14117;BME280;7137;51.436;6.544;2022-09-09T08:56:53;100431.69;;;22.37;58.33
14117;BME280;7137;51.436;6.544;2022-09-09T08:59:56;100434.13;;;21.87;59.13
14117;BME280;7137;51.436;6.544;2022-09-09T09:03:05;100436.69;;;21.45;60.35
14117;BME280;7137;51.436;6.544;2022-09-09T09:06:25;100437.81;;;20.75;61.88
14117;BME280;7137;51.436;6.544;2022-09-09T09:09:33;100424.75;;;21.06;63.93
14117;BME280;7137;51.436;6.544;2022-09-09T09:12:41;100435.03;;;20.66;63.70
14117;BME280;7137;51.436;6.544;2022-09-09T09:15:47;100442.16;;;20.77;65.24
14117;BME280;7137;51.436;6.544;2022-09-09T09:18:52;100446.50;;;21.00;63.86
14117;BME280;7137;51.436;6.544;2022-09-09T09:22:01;100450.09;;;21.10;63.80
14117;BME280;7137;51.436;6.544;2022-09-09T09:25:12;100452.16;;;21.18;64.21
14117;BME280;7137;51.436;6.544;2022-09-09T09:28:18;100454.34;;;20.79;64.04
14117;BME280;7137;51.436;6.544;2022-09-09T09:31:24;100453.38;;;21.14;62.98
14117;BME280;7137;51.436;6.544;2022-09-09T09:34:26;100446.19;;;21.59;61.32
14117;BME280;7137;51.436;6.544;2022-09-09T09:37:32;100451.44;;;22.34;59.08
14117;BME280;7137;51.436;6.544;2022-09-09T09:40:36;100451.03;;;22.60;56.65
14117;BME280;7137;51.436;6.544;2022-09-09T09:43:40;100451.88;;;25.23;51.90
14117;BME280;7137;51.436;6.544;2022-09-09T09:46:42;100444.94;;;27.23;46.04
14117;BME280;7137;51.436;6.544;2022-09-09T09:49:53;100455.56;;;27.40;44.53
14117;BME280;7137;51.436;6.544;2022-09-09T09:52:58;100453.66;;;28.64;41.85
14117;BME280;7137;51.436;6.544;2022-09-09T09:56:02;100442.72;;;26.76;44.62
14117;BME280;7137;51.436;6.544;2022-09-09T09:59:04;100451.19;;;25.21;48.85
14117;BME280;7137;51.436;6.544;2022-09-09T10:02:14;100442.28;;;24.46;48.29
14117;BME280;7137;51.436;6.544;2022-09-09T10:05:18;100439.91;;;24.33;50.53
14117;BME280;7137;51.436;6.544;2022-09-09T10:08:22;100447.25;;;23.14;51.39
14117;BME280;7137;51.436;6.544;2022-09-09T10:11:30;100433.66;;;23.26;52.40
14117;BME280;7137;51.436;6.544;2022-09-09T10:14:42;100432.88;;;22.74;52.88
14117;BME280;7137;51.436;6.544;2022-09-09T10:17:54;100440.34;;;21.65;56.15
14117;BME280;7137;51.436;6.544;2022-09-09T10:21:03;100441.00;;;21.57;57.39
14117;BME280;7137;51.436;6.544;2022-09-09T10:24:28;100433.22;;;21.00;59.01
14117;BME280;7137;51.436;6.544;2022-09-09T10:27:37;100440.09;;;21.14;59.65
14117;BME280;7137;51.436;6.544;2022-09-09T10:30:48;100436.94;;;21.09;59.79
14117;BME280;7137;51.436;6.544;2022-09-09T10:33:59;100438.16;;;20.93;60.52
14117;BME280;7137;51.436;6.544;2022-09-09T10:37:18;100435.25;;;21.08;59.95
14117;BME280;7137;51.436;6.544;2022-09-09T10:40:31;100432.31;;;21.55;59.00
14117;BME280;7137;51.436;6.544;2022-09-09T10:43:46;100430.53;;;22.09;58.56
14117;BME280;7137;51.436;6.544;2022-09-09T10:50:29;100420.84;;;22.49;56.52
14117;BME280;7137;51.436;6.544;2022-09-09T10:53:43;100421.53;;;23.03;55.00
14117;BME280;7137;51.436;6.544;2022-09-09T10:56:54;100420.06;;;23.49;53.26
14117;BME280;7137;51.436;6.544;2022-09-09T10:59:59;100418.06;;;23.12;53.63
14117;BME280;7137;51.436;6.544;2022-09-09T11:03:04;100426.53;;;22.66;55.40
14117;BME280;7137;51.436;6.544;2022-09-09T11:06:13;100433.56;;;22.04;56.96
14117;BME280;7137;51.436;6.544;2022-09-09T11:09:19;100427.16;;;21.43;59.46
14117;BME280;7137;51.436;6.544;2022-09-09T11:12:24;100416.28;;;21.23;60.17
14117;BME280;7137;51.436;6.544;2022-09-09T11:15:31;100424.91;;;21.59;59.47
14117;BME280;7137;51.436;6.544;2022-09-09T11:18:39;100423.25;;;21.79;58.75
14117;BME280;7137;51.436;6.544;2022-09-09T11:21:46;100418.72;;;22.22;58.73
14117;BME280;7137;51.436;6.544;2022-09-09T11:24:50;100424.97;;;22.12;58.73
14117;BME280;7137;51.436;6.544;2022-09-09T11:28:09;100418.72;;;22.43;57.83
14117;BME280;7137;51.436;6.544;2022-09-09T11:31:25;100419.16;;;22.48;57.75
14117;BME280;7137;51.436;6.544;2022-09-09T11:34:50;100414.06;;;22.15;57.21
14117;BME280;7137;51.436;6.544;2022-09-09T11:38:15;100416.97;;;22.33;56.91
14117;BME280;7137;51.436;6.544;2022-09-09T11:41:20;100415.66;;;22.78;55.49
14117;BME280;7137;51.436;6.544;2022-09-09T11:44:28;100412.81;;;22.40;56.14
14117;BME280;7137;51.436;6.544;2022-09-09T11:47:31;100419.13;;;22.39;55.73
14117;BME280;7137;51.436;6.544;2022-09-09T11:50:35;100416.56;;;22.58;55.54
14117;BME280;7137;51.436;6.544;2022-09-09T11:53:48;100414.72;;;22.59;56.79
14117;BME280;7137;51.436;6.544;2022-09-09T11:56:50;100416.00;;;22.64;56.29
14117;BME280;7137;51.436;6.544;2022-09-09T11:59:53;100419.03;;;22.50;57.38
14117;BME280;7137;51.436;6.544;2022-09-09T12:02:55;100411.66;;;22.63;57.83
14117;BME280;7137;51.436;6.544;2022-09-09T12:05:57;100412.38;;;22.14;57.54
14117;BME280;7137;51.436;6.544;2022-09-09T12:09:07;100418.63;;;22.24;58.78
14117;BME280;7137;51.436;6.544;2022-09-09T12:12:32;100405.31;;;21.92;59.29
14117;BME280;7137;51.436;6.544;2022-09-09T12:15:46;100420.59;;;21.79;58.82
14117;BME280;7137;51.436;6.544;2022-09-09T12:18:48;100447.56;;;21.09;65.24
14117;BME280;7137;51.436;6.544;2022-09-09T12:21:57;100447.59;;;19.94;73.53
14117;BME280;7137;51.436;6.544;2022-09-09T12:25:12;100447.69;;;19.57;77.07
14117;BME280;7137;51.436;6.544;2022-09-09T12:28:18;100447.00;;;19.66;78.01
14117;BME280;7137;51.436;6.544;2022-09-09T12:31:25;100446.28;;;19.88;75.56
14117;BME280;7137;51.436;6.544;2022-09-09T12:34:36;100440.19;;;20.10;75.82
14117;BME280;7137;51.436;6.544;2022-09-09T12:37:42;100435.91;;;20.31;77.37
14117;BME280;7137;51.436;6.544;2022-09-09T12:40:54;100449.16;;;20.78;75.53
14117;BME280;7137;51.436;6.544;2022-09-09T12:44:03;100448.53;;;21.19;73.97
14117;BME280;7137;51.436;6.544;2022-09-09T12:47:11;100439.34;;;21.34;71.72
14117;BME280;7137;51.436;6.544;2022-09-09T12:50:20;100440.44;;;21.20;70.98
14117;BME280;7137;51.436;6.544;2022-09-09T12:53:24;100437.56;;;21.12;71.39
14117;BME280;7137;51.436;6.544;2022-09-09T12:56:29;100430.34;;;21.69;69.49
14117;BME280;7137;51.436;6.544;2022-09-09T12:59:37;100426.88;;;21.57;69.68
14117;BME280;7137;51.436;6.544;2022-09-09T13:02:48;100428.69;;;21.56;67.15
14117;BME280;7137;51.436;6.544;2022-09-09T13:05:50;100433.47;;;21.30;67.40
14117;BME280;7137;51.436;6.544;2022-09-09T13:08:54;100425.72;;;21.16;67.06
14117;BME280;7137;51.436;6.544;2022-09-09T13:11:57;100428.13;;;21.30;67.35
14117;BME280;7137;51.436;6.544;2022-09-09T13:14:58;100418.59;;;21.17;68.37
14117;BME280;7137;51.436;6.544;2022-09-09T13:18:05;100409.69;;;21.61;66.62
14117;BME280;7137;51.436;6.544;2022-09-09T13:21:08;100413.03;;;21.74;65.72
14117;BME280;7137;51.436;6.544;2022-09-09T13:24:25;100405.78;;;21.97;65.29
14117;BME280;7137;51.436;6.544;2022-09-09T13:27:31;100399.50;;;22.40;63.59
14117;BME280;7137;51.436;6.544;2022-09-09T13:30:36;100397.34;;;22.55;63.59
14117;BME280;7137;51.436;6.544;2022-09-09T13:33:41;100394.91;;;22.42;62.50
14117;BME280;7137;51.436;6.544;2022-09-09T13:36:47;100385.94;;;22.43;61.90
14117;BME280;7137;51.436;6.544;2022-09-09T13:39:51;100398.88;;;22.06;63.64
14117;BME280;7137;51.436;6.544;2022-09-09T13:42:56;100390.50;;;22.10;63.18
14117;BME280;7137;51.436;6.544;2022-09-09T13:46:00;100384.28;;;21.89;63.79
14117;BME280;7137;51.436;6.544;2022-09-09T13:49:20;100378.16;;;22.09;63.85
14117;BME280;7137;51.436;6.544;2022-09-09T13:52:22;100385.94;;;22.01;62.98
14117;BME280;7137;51.436;6.544;2022-09-09T13:55:25;100394.28;;;21.76;63.55
14117;BME280;7137;51.436;6.544;2022-09-09T13:58:27;100388.41;;;21.61;64.24
14117;BME280;7137;51.436;6.544;2022-09-09T14:01:29;100399.72;;;21.74;63.17
14117;BME280;7137;51.436;6.544;2022-09-09T14:04:32;100388.03;;;21.33;64.10
14117;BME280;7137;51.436;6.544;2022-09-09T14:07:35;100391.25;;;20.71;67.44
14117;BME280;7137;51.436;6.544;2022-09-09T14:10:38;100396.53;;;20.83;69.47
14117;BME280;7137;51.436;6.544;2022-09-09T14:13:39;100396.91;;;20.78;70.52
14117;BME280;7137;51.436;6.544;2022-09-09T14:16:41;100409.19;;;19.99;72.57
14117;BME280;7137;51.436;6.544;2022-09-09T14:19:44;100413.00;;;19.23;83.28
14117;BME280;7137;51.436;6.544;2022-09-09T14:22:46;100411.19;;;18.24;86.97
14117;BME280;7137;51.436;6.544;2022-09-09T14:25:48;100414.47;;;18.15;89.40
14117;BME280;7137;51.436;6.544;2022-09-09T14:28:49;100416.63;;;17.56;89.65
14117;BME280;7137;51.436;6.544;2022-09-09T14:31:51;100419.47;;;17.52;89.68
14117;BME280;7137;51.436;6.544;2022-09-09T14:34:54;100421.31;;;17.38;91.06
14117;BME280;7137;51.436;6.544;2022-09-09T14:37:56;100415.56;;;17.58;91.32
14117;BME280;7137;51.436;6.544;2022-09-09T14:40:57;100410.06;;;17.75;91.69
14117;BME280;7137;51.436;6.544;2022-09-09T14:43:59;100409.25;;;17.88;90.56
14117;BME280;7137;51.436;6.544;2022-09-09T14:47:01;100411.03;;;17.74;91.40
14117;BME280;7137;51.436;6.544;2022-09-09T14:50:05;100404.28;;;17.96;91.13
14117;BME280;7137;51.436;6.544;2022-09-09T14:53:08;100400.84;;;18.21;90.26
14117;BME280;7137;51.436;6.544;2022-09-09T14:56:12;100401.06;;;18.30;87.99
14117;BME280;7137;51.436;6.544;2022-09-09T14:59:13;100406.44;;;18.29;88.50
14117;BME280;7137;51.436;6.544;2022-09-09T15:02:15;100404.00;;;18.38;87.19
14117;BME280;7137;51.436;6.544;2022-09-09T15:05:18;100404.44;;;18.32;88.20
14117;BME280;7137;51.436;6.544;2022-09-09T15:08:20;100395.56;;;18.46;85.42
14117;BME280;7137;51.436;6.544;2022-09-09T15:11:22;100393.09;;;18.56;88.86
14117;BME280;7137;51.436;6.544;2022-09-09T15:14:24;100392.69;;;18.87;85.07
14117;BME280;7137;51.436;6.544;2022-09-09T15:17:26;100386.75;;;19.20;82.90
14117;BME280;7137;51.436;6.544;2022-09-09T15:20:29;100380.75;;;19.66;84.24
14117;BME280;7137;51.436;6.544;2022-09-09T15:23:31;100384.75;;;20.18;81.75
14117;BME280;7137;51.436;6.544;2022-09-09T15:26:33;100380.63;;;20.60;80.02
14117;BME280;7137;51.436;6.544;2022-09-09T15:29:38;100386.66;;;20.62;78.56
14117;BME280;7137;51.436;6.544;2022-09-09T15:32:40;100374.66;;;21.01;78.56
14117;BME280;7137;51.436;6.544;2022-09-09T15:35:42;100383.59;;;21.00;77.63
14117;BME280;7137;51.436;6.544;2022-09-09T15:38:44;100380.75;;;21.24;76.81
14117;BME280;7137;51.436;6.544;2022-09-09T15:41:46;100381.72;;;21.23;76.20
14117;BME280;7137;51.436;6.544;2022-09-09T15:44:48;100383.22;;;21.16;77.03
14117;BME280;7137;51.436;6.544;2022-09-09T15:47:50;100380.44;;;21.18;77.91
14117;BME280;7137;51.436;6.544;2022-09-09T15:51:01;100381.16;;;21.31;77.09
14117;BME280;7137;51.436;6.544;2022-09-09T15:54:03;100380.31;;;21.30;76.84
14117;BME280;7137;51.436;6.544;2022-09-09T15:57:06;100372.78;;;21.36;76.26
14117;BME280;7137;51.436;6.544;2022-09-09T16:00:10;100381.16;;;21.31;75.99
14117;BME280;7137;51.436;6.544;2022-09-09T16:03:13;100384.91;;;21.28;77.66
14117;BME280;7137;51.436;6.544;2022-09-09T16:06:18;100383.66;;;21.21;76.17
14117;BME280;7137;51.436;6.544;2022-09-09T16:09:21;100385.47;;;21.21;75.80
14117;BME280;7137;51.436;6.544;2022-09-09T16:12:23;100389.50;;;21.15;75.59
14117;BME280;7137;51.436;6.544;2022-09-09T16:15:26;100393.00;;;21.04;76.32
14117;BME280;7137;51.436;6.544;2022-09-09T16:18:33;100401.47;;;20.87;77.33
14117;BME280;7137;51.436;6.544;2022-09-09T16:21:38;100400.75;;;20.74;77.80
14117;BME280;7137;51.436;6.544;2022-09-09T16:24:40;100405.72;;;20.56;78.87
14117;BME280;7137;51.436;6.544;2022-09-09T16:27:42;100406.31;;;20.49;78.22